Time;durP1;ratioP1;P1;durP2;ratioP2;P2;SDS_P1;SDS_P2;PMS_P1;PMS_P2;Temp;Humidity;BMP_temperature;BMP_pressure;BME280_temperature;BME280_humidity;BME280_pressure;Samples;Min_cycle;Max_cycle;Signal;HPM_P1;HPM_P2
2022/06/02 00:02:53;;;;;;;14.82;6.28;;;19.00;99.90;;;;;;4994813;28;20022;-79
2022/06/02 00:05:53;;;;;;;15.80;6.72;;;19.00;99.90;;;;;;4955200;29;20034;-79
2022/06/02 00:08:40;;;;;;;15.35;6.32;;;18.90;99.90;;;;;;4955133;29;20074;-79
2022/06/02 00:11:24;;;;;;;19.15;6.57;;;18.90;99.90;;;;;;4939044;29;20031;-79
2022/06/02 00:14:10;;;;;;;17.27;6.32;;;18.80;99.90;;;;;;4939235;29;20048;-79
2022/06/02 00:17:01;;;;;;;13.50;6.22;;;18.80;99.90;;;;;;4919846;29;20036;-79
2022/06/02 00:19:36;;;;;;;18.23;6.78;;;18.80;99.90;;;;;;4935976;29;20053;-79
2022/06/02 00:22:08;;;;;;;22.67;6.80;;;18.90;99.90;;;;;;4951758;29;20110;-79
2022/06/02 00:24:55;;;;;;;14.77;6.10;;;19.00;99.90;;;;;;4937914;29;20415;-79
2022/06/02 00:27:52;;;;;;;21.52;7.70;;;18.90;99.90;;;;;;4935524;29;20111;-79
2022/06/02 00:30:21;;;;;;;19.58;6.72;;;18.80;99.90;;;;;;4935653;29;20724;-79
2022/06/02 00:33:17;;;;;;;20.55;7.55;;;18.90;99.90;;;;;;4935967;29;20027;-79
2022/06/02 00:36:24;;;;;;;15.77;6.15;;;19.00;99.90;;;;;;4951681;28;20035;-79
2022/06/02 00:38:50;;;;;;;15.25;6.15;;;18.90;99.90;;;;;;4976165;28;20098;-80
2022/06/02 00:41:24;;;;;;;17.20;7.53;;;18.90;99.90;;;;;;4975687;28;20387;-79
2022/06/02 00:43:50;;;;;;;14.63;5.78;;;18.90;99.90;;;;;;4976074;28;20023;-79
2022/06/02 00:46:34;;;;;;;16.17;6.38;;;18.90;99.90;;;;;;4974678;28;20509;-79
2022/06/02 00:49:16;;;;;;;13.85;6.55;;;18.90;99.90;;;;;;4976244;28;20027;-79
2022/06/02 00:52:02;;;;;;;21.70;6.18;;;18.90;99.90;;;;;;4990892;28;20054;-79
2022/06/02 00:58:00;;;;;;;13.93;6.53;;;18.90;99.90;;;;;;4995162;28;20118;-79
2022/06/02 01:00:46;;;;;;;10.90;5.85;;;18.90;99.90;;;;;;4994028;28;20030;-79
2022/06/02 01:03:22;;;;;;;16.92;6.00;;;18.70;99.90;;;;;;4995214;28;20423;-79
2022/06/02 01:06:00;;;;;;;15.43;6.97;;;18.70;99.90;;;;;;4994078;28;20100;-79
2022/06/02 01:08:31;;;;;;;13.38;5.78;;;18.70;99.90;;;;;;4994869;28;20030;-79
2022/06/02 01:11:18;;;;;;;17.33;7.05;;;18.70;99.90;;;;;;4994809;28;20022;-80
2022/06/02 01:14:05;;;;;;;14.80;6.22;;;18.80;99.90;;;;;;4974513;28;20046;-79
2022/06/02 01:16:55;;;;;;;12.70;5.95;;;18.90;99.90;;;;;;4975596;28;20027;-79
2022/06/02 01:19:41;;;;;;;15.95;5.97;;;19.00;99.90;;;;;;4975444;28;20033;-79
2022/06/02 01:22:25;;;;;;;16.15;6.13;;;18.90;99.90;;;;;;4975975;28;20102;-79
2022/06/02 01:25:15;;;;;;;14.63;5.65;;;18.80;99.90;;;;;;4994094;28;20030;-79
2022/06/02 01:27:43;;;;;;;16.00;6.05;;;18.80;99.90;;;;;;4994643;28;20037;-79
2022/06/02 01:30:41;;;;;;;20.10;6.20;;;18.80;99.90;;;;;;4988736;28;20031;-79
2022/06/02 01:33:42;;;;;;;12.43;5.55;;;18.80;99.90;;;;;;4966816;28;20039;-79
2022/06/02 01:36:07;;;;;;;13.07;5.80;;;18.80;99.90;;;;;;4974664;28;20049;-79
2022/06/02 01:39:01;;;;;;;13.38;4.97;;;18.90;99.90;;;;;;4975155;28;20102;-79
2022/06/02 01:41:33;;;;;;;15.82;6.05;;;18.90;99.90;;;;;;4975089;28;20030;-79
2022/06/02 01:44:36;;;;;;;15.70;5.20;;;18.90;99.90;;;;;;4978681;28;20037;-80
2022/06/02 01:47:20;;;;;;;12.98;5.85;;;18.90;99.90;;;;;;4953349;29;20035;-80
2022/06/02 01:49:49;;;;;;;12.13;5.60;;;18.90;99.90;;;;;;4932639;29;20031;-79
2022/06/02 01:52:32;;;;;;;13.20;5.10;;;18.90;99.90;;;;;;4934259;29;20074;-79
2022/06/02 01:55:20;;;;;;;13.27;5.75;;;18.70;99.90;;;;;;4933789;29;20057;-79
2022/06/02 01:57:48;;;;;;;16.77;6.63;;;18.60;99.90;;;;;;4934032;29;20035;-79
2022/06/02 02:00:17;;;;;;;15.38;6.20;;;18.70;99.90;;;;;;4933998;29;20385;-79
2022/06/02 02:02:57;;;;;;;13.00;6.00;;;18.60;99.90;;;;;;4945920;29;20035;-79
2022/06/02 02:05:39;;;;;;;14.70;5.80;;;18.80;99.90;;;;;;4953443;29;20038;-79
2022/06/02 02:08:55;;;;;;;20.75;6.82;;;18.80;99.90;;;;;;4952835;29;20035;-79
2022/06/02 02:11:39;;;;;;;17.02;6.43;;;18.80;99.90;;;;;;4877132;29;20041;-79
2022/06/02 02:14:20;;;;;;;18.35;7.47;;;18.80;99.90;;;;;;4877356;29;20105;-79
2022/06/02 02:17:09;;;;;;;18.85;7.35;;;18.90;99.90;;;;;;4879710;29;20552;-79
2022/06/02 02:19:43;;;;;;;17.27;7.07;;;18.90;99.90;;;;;;4932991;29;20447;-79
2022/06/02 02:22:26;;;;;;;19.77;7.13;;;18.90;99.90;;;;;;4933708;29;20066;-80
2022/06/02 02:25:03;;;;;;;16.23;7.10;;;18.90;99.90;;;;;;4933528;29;20527;-79
2022/06/02 02:27:32;;;;;;;17.15;7.85;;;18.80;99.90;;;;;;4933740;29;20043;-79
2022/06/02 02:30:08;;;;;;;16.08;7.55;;;18.70;99.90;;;;;;4933597;29;20158;-79
2022/06/02 02:32:48;;;;;;;22.95;7.35;;;18.70;99.90;;;;;;4929074;29;20036;-79
2022/06/02 02:35:14;;;;;;;15.18;7.15;;;18.70;99.90;;;;;;4914474;29;20044;-79
2022/06/02 02:37:48;;;;;;;17.00;7.63;;;18.70;99.90;;;;;;4914170;29;20447;-79
2022/06/02 02:40:29;;;;;;;16.00;7.68;;;18.70;99.90;;;;;;4914400;29;20073;-79
2022/06/02 02:43:18;;;;;;;13.82;6.53;;;18.70;99.90;;;;;;4917530;29;20028;-79
2022/06/02 02:45:56;;;;;;;11.95;6.90;;;18.70;99.90;;;;;;4933156;28;20039;-79
2022/06/02 02:48:37;;;;;;;15.50;6.68;;;18.70;99.90;;;;;;4993461;28;20422;-80
2022/06/02 02:51:14;;;;;;;18.13;7.30;;;18.80;99.90;;;;;;4983043;28;20047;-79
2022/06/02 02:53:45;;;;;;;15.73;7.43;;;18.80;99.90;;;;;;4973609;28;20026;-79
2022/06/02 02:56:33;;;;;;;19.80;7.40;;;19.00;99.90;;;;;;4974229;28;20042;-79
2022/06/02 02:59:32;;;;;;;20.30;7.40;;;18.90;99.90;;;;;;4973677;28;20031;-79
2022/06/02 03:02:01;;;;;;;20.73;8.18;;;18.80;99.90;;;;;;4933444;29;20040;-79
2022/06/02 03:05:00;;;;;;;18.17;8.48;;;18.80;99.90;;;;;;4933260;29;20511;-79
2022/06/02 03:07:29;;;;;;;17.50;7.75;;;18.80;99.90;;;;;;4932895;29;20110;-80
2022/06/02 03:09:55;;;;;;;20.38;8.45;;;18.80;99.90;;;;;;4933212;29;20491;-79
2022/06/02 03:12:48;;;;;;;21.92;8.20;;;18.80;99.90;;;;;;4933417;29;20044;-80
2022/06/02 03:15:32;;;;;;;17.83;8.18;;;18.80;99.90;;;;;;4933363;29;20032;-79
2022/06/02 03:18:16;;;;;;;24.17;8.30;;;18.80;99.90;;;;;;4933148;29;20040;-79
2022/06/02 03:20:53;;;;;;;21.92;8.05;;;18.80;99.90;;;;;;4932846;29;20492;-79
2022/06/02 03:23:33;;;;;;;17.40;7.60;;;18.70;99.90;;;;;;4932907;29;20430;-79
2022/06/02 03:26:14;;;;;;;22.35;9.10;;;18.60;99.90;;;;;;4933155;29;20036;-79
2022/06/02 03:28:48;;;;;;;20.65;7.85;;;18.60;99.90;;;;;;4937396;29;20027;-79
2022/06/02 03:31:40;;;;;;;15.48;7.35;;;18.60;99.90;;;;;;4939768;29;20032;-79
2022/06/02 03:34:31;;;;;;;19.88;7.93;;;18.50;99.90;;;;;;4932839;29;20036;-80
2022/06/02 03:37:16;;;;;;;16.55;8.10;;;18.40;99.90;;;;;;4932610;29;20071;-79
2022/06/02 03:40:14;;;;;;;13.00;7.50;;;18.50;99.90;;;;;;4971519;28;20121;-79
2022/06/02 03:43:01;;;;;;;19.63;7.85;;;18.50;99.90;;;;;;4977179;28;20502;-80
2022/06/02 03:45:35;;;;;;;17.80;8.10;;;18.50;99.90;;;;;;4977257;28;20031;-80
2022/06/02 03:48:04;;;;;;;17.42;7.38;;;18.40;99.90;;;;;;4977147;28;20031;-79
2022/06/02 03:50:48;;;;;;;16.70;7.47;;;18.40;99.90;;;;;;4982037;28;20129;-80
2022/06/02 03:53:38;;;;;;;22.25;8.13;;;18.40;99.90;;;;;;4996553;28;20050;-79
2022/06/02 03:56:30;;;;;;;24.13;8.27;;;18.40;99.90;;;;;;4994897;28;20375;-79
2022/06/02 03:59:00;;;;;;;17.73;7.35;;;18.30;99.90;;;;;;4995204;28;20085;-79
2022/06/02 04:01:35;;;;;;;18.38;7.05;;;18.40;99.90;;;;;;4996296;28;20030;-79
2022/06/02 04:04:12;;;;;;;20.42;7.70;;;18.40;99.90;;;;;;4996263;28;20026;-79
2022/06/02 04:07:11;;;;;;;17.95;7.63;;;18.40;99.90;;;;;;4996419;28;20026;-78
2022/06/02 04:09:54;;;;;;;17.42;7.97;;;18.30;99.90;;;;;;4994266;28;20023;-79
2022/06/02 04:16:08;;;;;;;17.48;8.00;;;18.30;99.90;;;;;;4996243;28;20120;-80
2022/06/02 04:22:30;;;;;;;20.98;7.95;;;18.30;99.90;;;;;;4995746;28;20026;-79
2022/06/02 04:25:15;;;;;;;16.02;7.97;;;18.20;99.90;;;;;;4986844;28;20027;-79
2022/06/02 04:27:50;;;;;;;18.25;7.35;;;18.30;99.90;;;;;;4976203;28;20023;-79
2022/06/02 04:30:21;;;;;;;18.08;7.75;;;18.30;99.90;;;;;;4976528;28;20394;-80
2022/06/02 04:33:08;;;;;;;22.40;8.57;;;18.40;99.90;;;;;;4989669;28;20026;-79
2022/06/02 04:35:42;;;;;;;19.15;7.93;;;18.40;99.90;;;;;;4995470;28;20023;-79
2022/06/02 04:39:00;;;;;;;19.13;8.32;;;18.30;99.90;;;;;;4975997;28;20073;-76
2022/06/02 04:41:37;;;;;;;21.58;7.93;;;18.40;99.90;;;;;;4938342;29;20154;-78
2022/06/02 04:44:26;;;;;;;23.83;8.35;;;18.50;99.90;;;;;;4942714;29;20058;-77
2022/06/02 04:47:23;;;;;;;19.52;7.82;;;18.40;99.90;;;;;;4947484;28;20098;-79
2022/06/02 04:50:16;;;;;;;19.05;8.15;;;18.50;99.90;;;;;;4945218;29;20028;-79
2022/06/02 04:53:12;;;;;;;22.05;8.27;;;18.40;99.90;;;;;;4953561;28;20035;-79
2022/06/02 04:55:56;;;;;;;18.45;8.57;;;18.40;99.90;;;;;;4946869;29;20040;-78
2022/06/02 04:58:56;;;;;;;17.05;8.55;;;18.50;99.90;;;;;;4947816;29;20058;-79
2022/06/02 05:02:03;;;;;;;18.42;7.97;;;18.50;99.90;;;;;;4952478;29;20496;-75
2022/06/02 05:04:46;;;;;;;17.77;8.20;;;18.50;99.90;;;;;;4940776;29;20127;-78
2022/06/02 05:07:49;;;;;;;16.05;8.45;;;18.60;99.90;;;;;;4937640;29;20024;-77
2022/06/02 05:10:20;;;;;;;17.75;8.25;;;18.50;99.90;;;;;;4953377;29;20032;-79
2022/06/02 05:12:49;;;;;;;19.17;8.70;;;18.50;99.90;;;;;;4936415;29;20058;-79
2022/06/02 05:15:53;;;;;;;18.67;7.55;;;18.60;99.90;;;;;;4972553;28;20052;-82
2022/06/02 10:31:13;;;;;;;9.05;5.63;;;24.80;99.90;;;;;;5487962;23;20050;-82
2022/06/02 10:33:57;;;;;;;12.52;5.13;;;24.70;99.70;;;;;;4996065;28;20038;-80
2022/06/02 10:36:36;;;;;;;10.68;5.43;;;24.10;99.90;;;;;;5032412;28;20358;-81
2022/06/02 10:39:20;;;;;;;11.70;4.95;;;23.90;99.90;;;;;;5014844;28;20541;-81
2022/06/02 10:42:15;;;;;;;8.77;5.28;;;24.40;99.90;;;;;;4993089;28;20034;-81
2022/06/02 10:45:18;;;;;;;9.13;4.93;;;23.90;99.90;;;;;;5000792;28;20408;-81
2022/06/02 10:48:17;;;;;;;11.40;5.63;;;24.60;99.40;;;;;;4994072;28;20065;-81
2022/06/02 10:50:57;;;;;;;13.80;6.20;;;24.80;99.10;;;;;;5000373;28;20018;-81
2022/06/02 10:53:33;;;;;;;10.45;5.35;;;24.70;99.90;;;;;;5011526;28;20030;-82
2022/06/02 10:56:34;;;;;;;17.27;5.82;;;24.70;99.30;;;;;;5012756;28;20014;-81
2022/06/02 10:59:19;;;;;;;14.95;5.47;;;24.80;98.90;;;;;;4982128;28;20066;-81
2022/06/02 11:02:22;;;;;;;20.50;6.13;;;24.60;98.30;;;;;;4984946;28;20457;-82
2022/06/02 11:05:20;;;;;;;11.70;6.72;;;24.70;97.80;;;;;;4971204;28;20042;-81
2022/06/02 11:08:25;;;;;;;11.25;5.55;;;24.40;99.30;;;;;;4981903;28;20042;-81
2022/06/02 11:11:28;;;;;;;14.00;6.15;;;24.70;98.60;;;;;;4987265;28;20455;-81
2022/06/02 11:14:11;;;;;;;17.48;5.40;;;25.20;98.20;;;;;;4985825;28;20084;-81
2022/06/02 11:17:11;;;;;;;9.10;5.88;;;24.90;97.80;;;;;;4955264;28;20122;-82
2022/06/02 15:07:25;;;;;;;9.52;4.07;;;26.30;92.80;;;;;;5508728;23;20118;-77
2022/06/02 15:10:29;;;;;;;8.15;3.55;;;26.50;93.30;;;;;;4954551;28;20031;-77
2022/06/02 15:12:58;;;;;;;10.23;3.90;;;26.30;93.00;;;;;;4953945;28;20336;-74
2022/06/02 15:15:32;;;;;;;11.30;4.03;;;26.70;92.90;;;;;;4954178;29;20126;-74
2022/06/02 15:18:33;;;;;;;13.25;4.00;;;26.70;92.70;;;;;;4954168;29;20031;-72
2022/06/02 15:21:52;;;;;;;10.07;4.28;;;26.70;92.70;;;;;;4932839;29;20051;-73
2022/06/02 15:24:53;;;;;;;9.30;3.60;;;26.60;92.40;;;;;;4838948;29;20478;-73
2022/06/02 15:27:31;;;;;;;9.23;3.75;;;26.20;92.90;;;;;;4838796;29;20046;-73
2022/06/02 15:30:15;;;;;;;13.23;4.57;;;26.30;93.00;;;;;;4839187;29;20478;-74
2022/06/02 15:33:07;;;;;;;15.32;3.78;;;26.40;92.80;;;;;;4840997;29;20036;-74
2022/06/02 15:35:45;;;;;;;13.90;4.30;;;26.40;92.50;;;;;;4842626;29;20118;-74
2022/06/02 15:38:47;;;;;;;6.95;3.58;;;26.40;92.50;;;;;;4842452;29;20042;-74
2022/06/02 15:41:43;;;;;;;13.68;4.35;;;26.70;92.00;;;;;;4853109;29;20062;-74
2022/06/02 15:44:12;;;;;;;14.52;4.68;;;26.90;92.90;;;;;;4860684;29;20857;-75
2022/06/02 15:47:28;;;;;;;13.25;3.65;;;26.60;92.20;;;;;;4861197;29;20045;-74
2022/06/02 15:50:28;;;;;;;11.45;4.47;;;26.30;92.80;;;;;;4845715;29;20479;-74
2022/06/02 15:53:12;;;;;;;11.77;3.80;;;26.00;93.20;;;;;;4860963;29;20433;-74
2022/06/02 15:55:44;;;;;;;8.20;3.85;;;26.00;93.20;;;;;;4860447;29;20037;-74
2022/06/02 15:58:40;;;;;;;12.90;3.72;;;26.20;93.00;;;;;;4851391;29;20054;-74
2022/06/02 16:01:27;;;;;;;14.65;4.45;;;26.40;93.10;;;;;;4881774;29;20036;-74
2022/06/02 16:04:05;;;;;;;7.90;3.67;;;26.50;92.30;;;;;;4898298;29;20490;-74
2022/06/02 16:07:15;;;;;;;11.18;3.95;;;26.00;92.20;;;;;;4877377;29;20045;-74
2022/06/02 16:13:34;;;;;;;10.50;3.95;;;25.80;92.50;;;;;;4850999;29;20094;-74
2022/06/02 16:16:18;;;;;;;7.75;4.07;;;25.70;92.70;;;;;;4860367;29;20111;-74
2022/06/02 16:19:32;;;;;;;13.55;4.07;;;25.50;92.90;;;;;;4864094;29;20022;-74
2022/06/02 16:22:25;;;;;;;9.60;4.55;;;25.60;93.00;;;;;;4860812;29;20034;-74
2022/06/02 16:25:11;;;;;;;9.63;4.57;;;25.30;92.90;;;;;;4860059;29;20486;-74
2022/06/02 16:27:56;;;;;;;10.82;4.30;;;25.60;93.20;;;;;;4860366;29;20045;-74
2022/06/02 16:30:32;;;;;;;8.07;4.20;;;25.60;92.90;;;;;;4873624;29;20120;-74
2022/06/02 16:33:19;;;;;;;12.23;4.40;;;25.40;92.90;;;;;;4877599;29;20033;-74
2022/06/02 16:36:15;;;;;;;10.85;4.68;;;25.30;92.80;;;;;;4872810;29;20563;-74
2022/06/02 16:38:44;;;;;;;12.85;4.40;;;25.20;93.20;;;;;;4861803;29;20045;-73
2022/06/02 16:41:33;;;;;;;11.88;4.65;;;25.20;93.40;;;;;;4878747;29;20037;-73
2022/06/02 16:44:25;;;;;;;7.72;4.18;;;25.30;93.50;;;;;;4877919;29;20052;-73
2022/06/02 16:47:11;;;;;;;11.40;5.97;;;25.20;93.20;;;;;;4875758;29;20041;-81
2022/06/02 16:49:56;;;;;;;13.05;4.90;;;24.90;93.90;;;;;;4869956;29;20048;-82
2022/06/02 16:52:46;;;;;;;14.63;4.70;;;24.90;94.20;;;;;;4895372;29;20041;-82
2022/06/02 16:55:49;;;;;;;14.55;4.70;;;24.80;94.10;;;;;;4888892;29;20143;-82
2022/06/02 16:58:43;;;;;;;10.48;4.68;;;24.70;94.10;;;;;;4896906;29;20553;-81
2022/06/02 17:01:21;;;;;;;12.13;5.10;;;24.70;94.40;;;;;;4888442;29;20048;-81
2022/06/02 17:04:05;;;;;;;14.88;5.53;;;24.60;94.50;;;;;;4885260;29;20389;-80
2022/06/02 17:06:55;;;;;;;10.23;5.30;;;24.80;94.50;;;;;;4936809;29;20051;-79
2022/06/02 17:09:32;;;;;;;12.10;6.00;;;24.70;94.70;;;;;;4931955;29;20024;-75
2022/06/02 17:12:06;;;;;;;10.05;6.10;;;24.60;94.70;;;;;;4931483;29;20023;-78
2022/06/02 17:14:37;;;;;;;9.30;5.28;;;24.40;95.20;;;;;;4936546;29;20031;-75
2022/06/02 17:17:22;;;;;;;12.45;5.50;;;24.40;95.30;;;;;;4936719;29;20444;-75
2022/06/02 17:20:05;;;;;;;11.90;6.43;;;24.20;95.70;;;;;;4936380;29;20031;-79
2022/06/02 17:23:01;;;;;;;12.70;7.60;;;24.10;96.00;;;;;;4936171;29;20028;-79
2022/06/02 17:25:36;;;;;;;10.98;6.97;;;24.20;96.20;;;;;;4935779;29;20027;-79
2022/06/02 17:28:24;;;;;;;12.15;7.03;;;24.00;96.50;;;;;;4935606;29;20023;-74
2022/06/02 17:31:42;;;;;;;12.77;6.72;;;24.00;96.50;;;;;;4932704;28;20135;-75
2022/06/02 17:34:25;;;;;;;13.05;6.53;;;23.80;97.00;;;;;;4922153;29;20524;-74
2022/06/02 17:37:18;;;;;;;12.07;7.60;;;23.80;97.10;;;;;;4921112;29;20412;-74
2022/06/02 17:40:11;;;;;;;12.70;7.55;;;23.70;97.20;;;;;;4938267;29;20109;-80
2022/06/02 17:42:49;;;;;;;17.90;7.72;;;23.90;97.20;;;;;;4944798;29;20042;-80
2022/06/02 17:45:34;;;;;;;13.98;7.70;;;23.80;97.10;;;;;;4926083;29;20098;-83
2022/06/02 17:48:38;;;;;;;14.15;7.82;;;24.00;97.10;;;;;;4934091;29;20019;-83
2022/06/02 17:51:39;;;;;;;21.38;8.02;;;24.00;97.20;;;;;;4877450;29;20101;-88
2022/06/02 17:54:33;;;;;;;13.13;7.40;;;24.10;97.10;;;;;;4876343;29;20053;-88
2022/06/02 17:57:10;;;;;;;15.45;8.52;;;24.20;97.20;;;;;;4883549;29;20041;-83
2022/06/02 17:59:58;;;;;;;14.05;8.05;;;24.20;97.20;;;;;;4888346;29;20536;-87
2022/06/02 18:02:25;;;;;;;15.70;8.05;;;24.40;97.10;;;;;;4878409;29;20040;-83
2022/06/02 18:05:28;;;;;;;14.32;7.18;;;24.20;97.00;;;;;;4878706;29;20157;-80
2022/06/02 18:08:05;;;;;;;14.52;7.57;;;24.00;97.00;;;;;;4842101;29;20049;-87
2022/06/02 18:10:39;;;;;;;12.50;7.25;;;23.80;97.20;;;;;;4847737;29;20034;-83
2022/06/02 18:13:22;;;;;;;20.58;7.60;;;23.70;97.80;;;;;;4833207;29;20056;-86
2022/06/02 18:16:18;;;;;;;17.73;7.13;;;23.90;97.30;;;;;;4823145;29;20057;-81
2022/06/02 18:19:10;;;;;;;14.45;7.13;;;23.70;97.70;;;;;;4838455;29;20040;-76
2022/06/02 18:22:20;;;;;;;11.75;7.32;;;23.80;97.40;;;;;;4837204;29;20037;-79
2022/06/02 18:25:18;;;;;;;16.30;6.90;;;23.70;97.90;;;;;;4855340;29;20445;-83
2022/06/02 18:28:05;;;;;;;15.27;6.47;;;23.60;98.00;;;;;;4875431;29;20421;-83
2022/06/02 18:30:40;;;;;;;16.80;6.53;;;23.40;97.90;;;;;;4875275;29;20045;-83
2022/06/02 18:33:43;;;;;;;18.42;6.10;;;23.20;98.50;;;;;;4875930;29;20054;-81
2022/06/02 18:36:39;;;;;;;13.35;6.20;;;23.30;98.40;;;;;;4871886;29;20140;-80
2022/06/02 18:39:23;;;;;;;15.82;6.25;;;23.10;98.50;;;;;;4876039;29;20085;-79
2022/06/02 18:42:10;;;;;;;12.52;5.88;;;23.10;98.80;;;;;;4893374;29;20044;-79
2022/06/02 18:45:06;;;;;;;11.32;5.55;;;23.00;98.80;;;;;;4909884;29;20107;-81
2022/06/02 18:47:53;;;;;;;17.75;6.88;;;23.00;98.90;;;;;;4912120;29;20087;-81
2022/06/02 18:50:58;;;;;;;14.57;5.50;;;23.10;98.80;;;;;;4911255;29;20449;-83
2022/06/02 18:53:33;;;;;;;15.15;5.63;;;22.90;98.50;;;;;;4911941;29;20578;-82
2022/06/02 18:56:46;;;;;;;12.25;5.50;;;22.80;98.70;;;;;;4912528;29;20036;-81
2022/06/02 18:59:36;;;;;;;14.63;6.55;;;22.80;99.00;;;;;;4868346;29;20043;-81
2022/06/02 19:02:19;;;;;;;10.48;5.80;;;22.60;99.30;;;;;;4870171;29;20029;-80
2022/06/02 19:05:22;;;;;;;18.25;5.82;;;22.60;99.10;;;;;;4858237;29;20046;-80
2022/06/02 19:14:33;;;;;;;9.65;5.53;;;22.40;99.50;;;;;;4880614;29;20060;-80
2022/06/02 19:17:20;;;;;;;12.98;6.15;;;22.40;99.50;;;;;;4870320;29;20449;-80
2022/06/02 19:20:28;;;;;;;15.43;5.60;;;22.40;99.50;;;;;;4874684;29;20495;-80
2022/06/02 19:23:41;;;;;;;12.05;5.68;;;22.30;99.40;;;;;;4866613;29;20489;-80
2022/06/02 19:26:36;;;;;;;12.85;5.25;;;22.30;99.00;;;;;;4825118;29;20042;-76
2022/06/02 19:29:29;;;;;;;9.10;5.55;;;22.20;99.20;;;;;;4833307;29;20068;-75
2022/06/02 19:32:21;;;;;;;15.02;5.10;;;22.20;99.40;;;;;;4862886;29;20057;-74
2022/06/02 19:35:07;;;;;;;13.70;5.15;;;22.10;98.90;;;;;;4862825;29;20021;-74
2022/06/02 19:37:42;;;;;;;13.65;4.95;;;21.90;99.30;;;;;;4836621;29;20038;-74
2022/06/02 19:40:32;;;;;;;14.90;5.55;;;21.90;99.20;;;;;;4834009;29;20048;-74
2022/06/02 19:43:06;;;;;;;13.05;5.20;;;21.90;99.30;;;;;;4837445;29;20042;-74
2022/06/02 19:45:47;;;;;;;11.93;5.30;;;21.80;99.50;;;;;;4836401;29;20037;-74
2022/06/02 19:48:16;;;;;;;11.97;5.33;;;21.90;99.40;;;;;;4833585;29;20038;-74
2022/06/02 19:51:17;;;;;;;10.35;4.78;;;21.80;99.50;;;;;;4835177;29;20347;-74
2022/06/02 19:53:55;;;;;;;10.13;4.55;;;21.70;99.60;;;;;;4826285;29;20034;-74
2022/06/02 19:56:30;;;;;;;14.85;4.95;;;21.50;99.60;;;;;;4834159;29;20046;-74
2022/06/02 19:59:18;;;;;;;15.85;5.38;;;21.40;99.80;;;;;;4835861;29;20032;-74
2022/06/02 20:01:49;;;;;;;15.27;5.47;;;21.50;99.90;;;;;;4832734;29;20042;-74
2022/06/02 20:04:20;;;;;;;12.93;4.97;;;21.30;99.90;;;;;;4833925;29;20561;-74
2022/06/02 20:06:46;;;;;;;14.73;5.18;;;21.40;99.90;;;;;;4835253;29;20069;-74
2022/06/02 20:09:17;;;;;;;15.23;5.45;;;21.40;99.90;;;;;;4834983;29;20053;-74
2022/06/02 20:11:46;;;;;;;14.15;5.80;;;21.30;99.90;;;;;;4834782;29;20104;-74
2022/06/02 20:14:23;;;;;;;14.68;4.88;;;21.30;99.90;;;;;;4866803;29;20495;-74
2022/06/02 20:16:57;;;;;;;16.63;5.35;;;21.20;99.90;;;;;;4939772;29;20031;-74
2022/06/02 20:19:46;;;;;;;10.98;5.32;;;21.20;99.90;;;;;;4937479;29;20024;-74
2022/06/02 20:22:11;;;;;;;9.23;4.50;;;21.00;99.90;;;;;;4931716;29;20027;-74
2022/06/02 20:24:55;;;;;;;17.42;5.78;;;21.00;99.90;;;;;;4937008;29;20024;-74
2022/06/02 20:27:44;;;;;;;10.55;4.90;;;21.10;99.90;;;;;;4932419;29;20171;-74
2022/06/02 20:30:23;;;;;;;12.45;4.85;;;21.10;99.90;;;;;;4934419;29;20016;-74
2022/06/02 20:33:17;;;;;;;11.00;4.60;;;21.00;99.90;;;;;;4918725;29;20024;-75
2022/06/02 20:36:14;;;;;;;14.27;4.82;;;20.80;99.90;;;;;;4931614;29;20526;-75
2022/06/02 20:39:11;;;;;;;11.27;5.68;;;20.80;99.90;;;;;;4935584;29;20508;-75
2022/06/02 20:42:07;;;;;;;14.68;5.10;;;20.80;99.90;;;;;;4936205;29;20119;-75
2022/06/02 20:44:57;;;;;;;12.05;5.38;;;20.80;99.90;;;;;;4934856;29;20040;-75
2022/06/02 20:47:26;;;;;;;15.05;5.63;;;20.70;99.90;;;;;;4937243;29;20031;-75
2022/06/02 20:49:57;;;;;;;12.63;5.20;;;20.80;99.90;;;;;;4937238;29;20158;-75
2022/06/02 20:52:40;;;;;;;16.15;5.68;;;20.80;99.90;;;;;;4937849;29;20034;-75
2022/06/02 20:55:21;;;;;;;12.38;5.18;;;20.60;99.90;;;;;;4937372;29;20091;-75
2022/06/02 20:58:00;;;;;;;12.68;4.82;;;20.50;99.90;;;;;;4918087;29;20070;-75
2022/06/02 21:00:35;;;;;;;11.93;5.57;;;20.60;99.90;;;;;;4932712;29;20471;-75
2022/06/02 21:03:06;;;;;;;19.20;5.65;;;20.50;99.90;;;;;;4937191;29;20522;-75
2022/06/02 21:05:32;;;;;;;12.50;5.90;;;20.40;99.90;;;;;;4936912;29;20035;-75
2022/06/02 21:08:21;;;;;;;13.38;5.47;;;20.40;99.90;;;;;;4935457;29;20054;-75
2022/06/02 21:11:05;;;;;;;11.63;5.20;;;20.40;99.90;;;;;;4937149;29;20476;-75
2022/06/02 21:13:40;;;;;;;12.82;5.53;;;20.50;99.90;;;;;;4936693;29;20095;-75
2022/06/02 21:16:10;;;;;;;15.50;5.82;;;20.50;99.90;;;;;;4935566;29;20087;-75
2022/06/02 21:18:54;;;;;;;12.05;5.82;;;20.40;99.90;;;;;;4937047;29;20055;-75
2022/06/02 21:21:47;;;;;;;10.23;5.78;;;20.40;99.90;;;;;;4936989;29;20102;-75
2022/06/02 21:24:21;;;;;;;16.70;6.20;;;20.40;99.90;;;;;;4936810;29;20055;-75
2022/06/02 21:27:41;;;;;;;13.35;5.90;;;20.30;99.90;;;;;;4936168;29;20036;-75
2022/06/02 21:30:22;;;;;;;17.10;5.82;;;20.30;99.90;;;;;;4913348;29;20110;-75
2022/06/02 21:33:01;;;;;;;14.82;5.50;;;20.30;99.90;;;;;;4914214;29;20477;-75
2022/06/02 21:35:49;;;;;;;10.25;5.20;;;20.30;99.90;;;;;;4896677;29;20516;-75
2022/06/02 21:38:44;;;;;;;12.45;5.03;;;20.20;99.90;;;;;;4896638;29;20043;-75
2022/06/02 21:41:23;;;;;;;13.25;5.22;;;20.10;99.90;;;;;;4890916;29;20048;-75
2022/06/02 21:43:57;;;;;;;14.38;5.60;;;20.10;99.90;;;;;;4915014;29;20155;-75
2022/06/02 21:46:31;;;;;;;13.90;5.85;;;20.00;99.90;;;;;;4905494;29;20036;-75
2022/06/02 21:49:06;;;;;;;12.57;5.50;;;20.10;99.90;;;;;;4896518;29;20040;-75
2022/06/02 21:51:52;;;;;;;18.70;6.18;;;20.00;99.90;;;;;;4896139;29;20035;-75
2022/06/02 21:54:43;;;;;;;19.13;6.47;;;20.00;99.90;;;;;;4908166;29;20044;-75
2022/06/02 21:57:34;;;;;;;17.85;5.28;;;20.00;99.90;;;;;;4914684;29;20031;-75
2022/06/02 22:00:07;;;;;;;12.10;5.45;;;19.90;99.90;;;;;;4917863;29;20044;-75
2022/06/02 22:02:42;;;;;;;17.83;5.40;;;20.00;99.90;;;;;;4936322;29;20503;-75
2022/06/02 22:05:17;;;;;;;15.75;4.78;;;19.90;99.90;;;;;;4935864;29;20034;-74
2022/06/02 22:07:46;;;;;;;11.52;4.85;;;19.90;99.90;;;;;;4936223;29;20492;-74
2022/06/02 22:10:34;;;;;;;11.27;4.65;;;19.80;99.90;;;;;;4935574;29;20381;-75
2022/06/02 22:13:18;;;;;;;13.45;4.53;;;19.90;99.90;;;;;;4935273;29;20462;-75
2022/06/02 22:16:07;;;;;;;14.73;4.85;;;19.90;99.90;;;;;;4934720;29;20028;-75
2022/06/02 22:18:48;;;;;;;9.98;4.25;;;19.90;99.90;;;;;;4936073;29;20032;-75
2022/06/02 22:21:19;;;;;;;10.57;4.13;;;19.80;99.90;;;;;;4936181;29;20111;-75
2022/06/02 22:24:23;;;;;;;10.55;4.38;;;19.80;99.90;;;;;;4935245;29;20076;-75
2022/06/02 22:27:14;;;;;;;15.68;4.35;;;19.70;99.90;;;;;;4935266;29;20167;-74
2022/06/02 22:30:15;;;;;;;14.45;5.07;;;19.70;99.90;;;;;;4935718;29;20034;-74
2022/06/02 22:33:03;;;;;;;16.92;4.15;;;19.80;99.90;;;;;;4935193;29;20044;-74
2022/06/02 22:36:02;;;;;;;12.15;4.32;;;19.90;99.90;;;;;;4935270;29;20047;-74
2022/06/02 22:39:12;;;;;;;15.20;4.20;;;19.70;99.90;;;;;;4934311;29;20040;-74
2022/06/02 22:41:57;;;;;;;18.38;5.13;;;19.70;99.90;;;;;;4934519;29;20115;-74
2022/06/02 22:44:46;;;;;;;16.63;4.93;;;19.60;99.90;;;;;;4935349;29;20514;-74
2022/06/02 22:47:30;;;;;;;12.95;4.57;;;19.70;99.90;;;;;;4916537;29;20039;-74
2022/06/02 22:50:17;;;;;;;14.23;4.88;;;19.70;99.90;;;;;;4934600;29;20034;-74
2022/06/02 22:53:19;;;;;;;13.43;4.15;;;19.60;99.90;;;;;;4935497;29;20070;-74
2022/06/02 22:56:09;;;;;;;12.20;3.65;;;19.50;99.90;;;;;;4949201;29;20560;-74
2022/06/02 22:58:53;;;;;;;12.48;4.43;;;19.60;99.90;;;;;;4935443;29;20480;-74
2022/06/02 23:01:32;;;;;;;13.35;4.47;;;19.60;99.90;;;;;;4935138;29;20361;-74
2022/06/02 23:04:12;;;;;;;12.73;4.40;;;19.50;99.90;;;;;;4934065;29;20032;-74
2022/06/02 23:07:02;;;;;;;10.98;4.57;;;19.50;99.90;;;;;;4935174;29;20056;-74
2022/06/02 23:09:49;;;;;;;14.45;5.20;;;19.50;99.90;;;;;;4934671;29;20040;-74
2022/06/02 23:12:45;;;;;;;15.32;4.78;;;19.50;99.90;;;;;;4934990;29;20023;-74
2022/06/02 23:15:22;;;;;;;8.30;3.90;;;19.60;99.90;;;;;;4934942;29;20051;-74
2022/06/02 23:18:14;;;;;;;15.38;4.80;;;19.40;99.90;;;;;;4935591;29;20028;-74
2022/06/02 23:20:50;;;;;;;14.48;5.40;;;19.30;99.90;;;;;;4934181;29;20032;-74
2022/06/02 23:23:42;;;;;;;15.55;5.05;;;19.40;99.90;;;;;;4935051;29;20086;-74
2022/06/02 23:26:15;;;;;;;13.43;4.88;;;19.40;99.90;;;;;;4934290;29;20040;-74
2022/06/02 23:29:18;;;;;;;16.33;4.82;;;19.40;99.90;;;;;;4923844;29;20455;-74
2022/06/02 23:32:02;;;;;;;12.88;4.75;;;19.30;99.90;;;;;;4915913;29;20396;-74
2022/06/02 23:35:03;;;;;;;21.58;5.13;;;19.20;99.90;;;;;;4919260;29;20023;-74